createdAt,value
2023-10-26T00:02:25.637Z,14.64
2023-10-26T00:04:54.808Z,14.68
2023-10-26T00:07:23.890Z,14.68
2023-10-26T00:09:53.459Z,14.64
2023-10-26T00:12:22.939Z,14.80
2023-10-26T00:14:52.584Z,14.88
2023-10-26T00:17:23.499Z,15.03
2023-10-26T00:19:53.669Z,14.53
2023-10-26T00:22:23.572Z,14.73
2023-10-26T00:24:53.807Z,14.69
2023-10-26T00:27:22.903Z,14.77
2023-10-26T00:29:52.120Z,14.49
2023-10-26T00:32:22.767Z,14.43
2023-10-26T00:34:52.087Z,14.49
2023-10-26T00:37:21.370Z,14.58
2023-10-26T00:39:50.522Z,14.52
2023-10-26T00:42:20.641Z,14.58
2023-10-26T00:44:51.136Z,14.69
2023-10-26T00:47:20.452Z,14.83
2023-10-26T00:49:51.667Z,14.86
2023-10-26T00:52:21.146Z,14.84
2023-10-26T00:54:52.567Z,14.93
2023-10-26T00:57:25.683Z,14.95
2023-10-26T00:59:55.400Z,15.07
2023-10-26T01:02:25.910Z,14.97
2023-10-26T01:04:56.635Z,15.01
2023-10-26T01:07:25.730Z,15.05
2023-10-26T01:09:55.022Z,14.37
2023-10-26T01:12:24.295Z,14.10
2023-10-26T01:14:54.441Z,14.16
2023-10-26T01:17:24.952Z,14.32
2023-10-26T01:19:56.362Z,14.11
2023-10-26T01:22:32.954Z,14.19
2023-10-26T01:25:02.368Z,14.39
2023-10-26T01:27:33.487Z,14.53
2023-10-26T01:30:03.034Z,14.38
2023-10-26T01:32:32.513Z,14.27
2023-10-26T01:35:01.968Z,14.34
2023-10-26T01:37:32.720Z,14.20
2023-10-26T01:40:02.453Z,14.34
2023-10-26T01:42:31.709Z,14.58
2023-10-26T01:45:00.841Z,14.91
2023-10-26T01:47:32.724Z,15.11
2023-10-26T01:50:02.142Z,14.73
2023-10-26T01:52:33.101Z,14.81
2023-10-26T01:55:02.261Z,14.40
2023-10-26T01:57:31.403Z,14.26
2023-10-26T02:00:00.691Z,14.40
2023-10-26T02:02:30.015Z,14.53
2023-10-26T02:04:59.275Z,14.36
2023-10-26T02:07:28.571Z,14.31
2023-10-26T02:10:01.204Z,14.52
2023-10-26T02:12:30.427Z,14.75
2023-10-26T02:14:59.812Z,14.88
2023-10-26T02:17:30.416Z,15.00
2023-10-26T02:19:59.572Z,15.04
2023-10-26T02:22:28.737Z,14.70
2023-10-26T02:24:59.530Z,14.14
2023-10-26T02:27:28.557Z,14.16
2023-10-26T02:29:57.754Z,14.31
2023-10-26T02:32:27.330Z,14.31
2023-10-26T02:34:56.500Z,14.34
2023-10-26T02:37:25.495Z,14.10
2023-10-26T02:39:54.501Z,14.39
2023-10-26T02:42:25.466Z,14.27
2023-10-26T02:44:55.007Z,14.12
2023-10-26T02:47:25.162Z,14.04
2023-10-26T02:49:54.442Z,14.30
2023-10-26T02:52:23.474Z,14.68
2023-10-26T02:54:52.487Z,14.60
2023-10-26T02:57:21.500Z,13.86
2023-10-26T02:59:52.484Z,13.82
2023-10-26T03:02:21.606Z,13.75
2023-10-26T03:04:50.693Z,13.82
2023-10-26T03:07:24.084Z,13.90
2023-10-26T03:09:53.743Z,13.94
2023-10-26T03:12:23.114Z,13.65
2023-10-26T03:14:54.039Z,13.43
2023-10-26T03:17:23.358Z,13.51
2023-10-26T03:19:52.747Z,13.82
2023-10-26T03:22:22.319Z,14.01
2023-10-26T03:24:53.322Z,13.89
2023-10-26T03:27:22.635Z,13.83
2023-10-26T03:29:53.858Z,13.93
2023-10-26T03:32:22.374Z,14.00
2023-10-26T03:34:53.699Z,14.02
2023-10-26T03:37:22.957Z,14.02
2023-10-26T03:39:52.696Z,13.99
2023-10-26T03:42:22.089Z,13.84
2023-10-26T03:44:53.207Z,13.76
2023-10-26T03:47:22.616Z,13.62
2023-10-26T03:49:53.740Z,13.32
2023-10-26T03:52:23.065Z,13.34
2023-10-26T03:54:53.596Z,13.57
2023-10-26T03:57:23.055Z,13.57
2023-10-26T03:59:54.236Z,13.64
2023-10-26T04:02:23.414Z,13.61
2023-10-26T04:04:52.514Z,13.81
2023-10-26T04:07:22.007Z,13.53
2023-10-26T04:09:51.916Z,13.67
2023-10-26T04:12:20.894Z,13.71
2023-10-26T04:14:50.398Z,13.78
2023-10-26T04:17:21.344Z,13.56
2023-10-26T04:19:50.685Z,13.18
2023-10-26T04:22:19.847Z,13.37
2023-10-26T04:24:48.962Z,13.46
2023-10-26T04:27:18.287Z,13.52
2023-10-26T04:29:47.231Z,13.37
2023-10-26T04:32:16.350Z,13.21
2023-10-26T04:34:47.804Z,13.45
2023-10-26T04:37:17.200Z,13.40
2023-10-26T04:39:46.298Z,13.53
2023-10-26T04:42:15.539Z,13.61
2023-10-26T04:44:44.818Z,13.70
2023-10-26T04:47:14.225Z,13.59
2023-10-26T04:49:44.075Z,13.95
2023-10-26T04:52:18.007Z,14.16
2023-10-26T04:54:47.853Z,14.29
2023-10-26T04:57:17.756Z,14.34
2023-10-26T04:59:47.061Z,14.56
2023-10-26T05:02:16.347Z,14.32
2023-10-26T05:04:45.787Z,14.11
2023-10-26T05:07:16.620Z,14.21
2023-10-26T05:09:45.896Z,14.03
2023-10-26T05:12:15.122Z,13.94
2023-10-26T05:14:44.405Z,14.06
2023-10-26T05:17:13.711Z,14.08
2023-10-26T05:19:42.907Z,14.03
2023-10-26T05:22:12.149Z,14.11
2023-10-26T05:24:43.759Z,14.01
2023-10-26T05:27:13.022Z,13.75
2023-10-26T05:29:42.214Z,13.34
2023-10-26T05:32:11.462Z,13.64
2023-10-26T05:34:40.479Z,13.87
2023-10-26T05:37:11.018Z,13.99
2023-10-26T05:39:40.261Z,13.29
2023-10-26T05:42:11.588Z,13.00
2023-10-26T05:44:41.076Z,13.34
2023-10-26T05:47:10.597Z,13.43
2023-10-26T05:49:40.126Z,12.33
2023-10-26T05:52:09.167Z,12.52
2023-10-26T05:54:38.560Z,12.88
2023-10-26T05:57:08.116Z,13.06
2023-10-26T05:59:38.920Z,13.27
2023-10-26T06:02:08.205Z,13.50
2023-10-26T06:04:37.628Z,13.23
2023-10-26T06:07:06.624Z,12.86
2023-10-26T06:09:35.720Z,13.49
2023-10-26T06:12:05.139Z,13.76
2023-10-26T06:14:34.426Z,13.52
2023-10-26T06:17:05.736Z,13.14
2023-10-26T06:19:35.714Z,13.72
2023-10-26T06:22:04.893Z,14.05
2023-10-26T06:24:34.208Z,14.38
2023-10-26T06:27:05.000Z,14.31
2023-10-26T06:29:34.260Z,14.59
2023-10-26T06:32:06.381Z,14.75
2023-10-26T06:34:36.063Z,14.81
2023-10-26T06:37:05.659Z,14.92
2023-10-26T06:39:34.823Z,15.12
2023-10-26T06:42:04.347Z,15.27
2023-10-26T06:44:33.493Z,15.18
2023-10-26T06:47:02.648Z,15.40
2023-10-26T06:49:33.399Z,15.56
2023-10-26T06:52:03.423Z,15.69
2023-10-26T06:54:32.781Z,15.42
2023-10-26T06:57:02.187Z,15.50
2023-10-26T06:59:32.649Z,15.35
2023-10-26T07:02:08.733Z,15.31
2023-10-26T07:04:41.419Z,15.49
2023-10-26T07:07:10.540Z,15.71
2023-10-26T07:09:40.007Z,14.69
2023-10-26T07:12:09.939Z,15.03
2023-10-26T07:14:41.128Z,15.35
2023-10-26T07:17:10.392Z,15.58
2023-10-26T07:19:41.234Z,15.30
2023-10-26T07:22:10.943Z,15.77
2023-10-26T07:24:40.120Z,15.77
2023-10-26T07:27:09.132Z,15.74
2023-10-26T07:29:38.403Z,16.00
2023-10-26T07:32:08.878Z,16.07
2023-10-26T07:34:38.075Z,15.74
2023-10-26T07:37:09.156Z,15.63
2023-10-26T07:39:44.880Z,15.81
2023-10-26T07:42:17.430Z,16.06
2023-10-26T07:44:47.256Z,16.19
2023-10-26T07:47:16.455Z,15.73
2023-10-26T07:49:45.612Z,16.39
2023-10-26T07:52:16.785Z,16.41
2023-10-26T07:54:46.193Z,16.52
2023-10-26T07:57:16.189Z,16.82
2023-10-26T07:59:46.592Z,17.61
2023-10-26T08:02:15.792Z,18.75
2023-10-26T08:04:45.747Z,19.53
2023-10-26T08:07:16.494Z,19.66
2023-10-26T08:09:45.756Z,19.38
2023-10-26T08:12:15.125Z,19.58
2023-10-26T08:16:11.031Z,19.97
2023-10-26T08:17:36.779Z,19.19
2023-10-26T08:20:08.600Z,19.96
2023-10-26T08:22:40.117Z,20.08
2023-10-26T08:25:09.891Z,19.89
2023-10-26T08:27:40.790Z,20.22
2023-10-26T08:30:11.768Z,20.35
2023-10-26T08:32:40.982Z,19.59
2023-10-26T08:35:10.578Z,19.49
2023-10-26T08:37:41.902Z,20.02
2023-10-26T08:40:30.432Z,19.87
2023-10-26T08:43:02.324Z,19.97
2023-10-26T08:45:33.076Z,19.95
2023-10-26T08:48:02.617Z,20.21
2023-10-26T08:50:31.912Z,20.48
2023-10-26T08:53:02.357Z,20.02
2023-10-26T08:55:32.804Z,19.91
2023-10-26T08:58:04.249Z,18.58
2023-10-26T09:00:33.942Z,18.61
2023-10-26T09:03:05.121Z,19.04
2023-10-26T09:05:52.842Z,19.43
2023-10-26T09:08:24.919Z,19.39
2023-10-26T09:10:54.095Z,19.41
2023-10-26T09:13:28.184Z,19.04
2023-10-26T09:16:00.280Z,19.35
2023-10-26T09:18:30.006Z,19.30
2023-10-26T09:21:07.324Z,19.61
2023-10-26T09:23:41.546Z,19.68
2023-10-26T09:26:12.161Z,19.88
2023-10-26T09:28:55.465Z,19.82
2023-10-26T09:31:26.497Z,20.92
2023-10-26T09:33:55.756Z,21.14
2023-10-26T09:36:25.015Z,21.22
2023-10-26T09:38:56.139Z,21.44
2023-10-26T09:41:25.995Z,21.43
2023-10-26T09:43:55.085Z,22.13
2023-10-26T09:46:25.540Z,23.36
2023-10-26T09:48:55.447Z,24.23
2023-10-26T09:51:24.869Z,25.30
2023-10-26T09:53:56.328Z,25.25
2023-10-26T09:56:29.834Z,24.77
2023-10-26T09:59:01.278Z,24.53
2023-10-26T10:01:37.257Z,25.27
2023-10-26T10:04:06.985Z,25.48
2023-10-26T10:06:49.802Z,25.73
2023-10-26T10:09:23.356Z,25.57
2023-10-26T10:12:29.875Z,25.81
2023-10-26T10:15:22.397Z,26.70
2023-10-26T10:18:06.077Z,26.56
2023-10-26T10:20:36.867Z,26.76
2023-10-26T10:23:07.110Z,26.55
2023-10-26T10:26:19.600Z,25.89
2023-10-26T10:28:55.991Z,25.39
2023-10-26T10:31:26.393Z,25.61
2023-10-26T10:34:06.456Z,25.04
2023-10-26T10:37:12.410Z,23.80
2023-10-26T10:39:56.892Z,23.40
2023-10-26T10:42:28.134Z,23.25
2023-10-26T10:44:59.159Z,22.70
2023-10-26T10:47:30.789Z,22.89
2023-10-26T10:50:21.534Z,23.00
2023-10-26T10:52:51.876Z,22.84
2023-10-26T10:55:22.647Z,23.53
2023-10-26T10:57:58.450Z,23.76
2023-10-26T11:00:29.439Z,24.07
2023-10-26T11:03:02.388Z,24.31
2023-10-26T11:05:39.670Z,24.00
2023-10-26T11:08:09.395Z,23.97
2023-10-26T11:10:38.658Z,24.11
2023-10-26T11:13:09.781Z,24.08
2023-10-26T11:15:40.391Z,24.20
2023-10-26T11:18:10.307Z,23.94
2023-10-26T11:20:41.292Z,24.26
2023-10-26T11:23:12.117Z,24.46
2023-10-26T11:25:41.601Z,24.41
2023-10-26T11:28:12.254Z,25.05
2023-10-26T11:30:49.432Z,25.03
2023-10-26T11:33:31.969Z,24.87
2023-10-26T11:36:02.534Z,24.80
2023-10-26T11:38:32.770Z,24.56
2023-10-26T11:41:03.080Z,24.43
2023-10-26T11:43:37.940Z,25.03
2023-10-26T11:46:07.413Z,25.13
2023-10-26T11:48:36.503Z,25.57
2023-10-26T11:51:07.925Z,25.70
2023-10-26T11:53:40.249Z,25.19
2023-10-26T11:56:09.518Z,24.86
2023-10-26T11:58:40.267Z,24.58
2023-10-26T12:01:09.615Z,24.36
2023-10-26T12:03:44.976Z,24.12
2023-10-26T12:06:14.539Z,23.87
2023-10-26T12:08:43.946Z,23.45
2023-10-26T12:11:13.031Z,22.92
2023-10-26T12:13:43.882Z,22.48
2023-10-26T12:16:13.096Z,22.92
2023-10-26T12:18:42.438Z,23.18
2023-10-26T12:21:11.561Z,23.11
2023-10-26T12:23:41.043Z,22.72
2023-10-26T12:26:10.156Z,22.71
2023-10-26T12:28:39.235Z,22.84
2023-10-26T12:31:09.717Z,23.08
2023-10-26T12:33:41.286Z,23.26
2023-10-26T12:36:11.660Z,23.70
2023-10-26T12:38:40.531Z,24.32
2023-10-26T12:41:09.997Z,25.01
2023-10-26T12:43:39.212Z,24.56
2023-10-26T12:46:09.856Z,24.13
2023-10-26T12:48:38.959Z,23.85
2023-10-26T12:51:08.381Z,23.69
2023-10-26T12:53:38.641Z,23.12
2023-10-26T12:56:07.943Z,22.43
2023-10-26T12:58:36.975Z,22.65
2023-10-26T13:01:06.365Z,22.53
2023-10-26T13:03:37.018Z,22.16
2023-10-26T13:06:06.243Z,22.33
2023-10-26T13:08:35.324Z,22.13
2023-10-26T13:11:04.722Z,22.11
2023-10-26T13:13:33.654Z,22.14
2023-10-26T13:16:03.013Z,22.10
2023-10-26T13:18:32.211Z,21.97
2023-10-26T13:21:03.935Z,21.92
2023-10-26T13:23:33.077Z,22.02
2023-10-26T13:26:02.343Z,22.12
2023-10-26T13:28:31.366Z,21.70
2023-10-26T13:31:00.719Z,21.83
2023-10-26T13:33:30.084Z,21.90
2023-10-26T13:35:59.146Z,21.95
2023-10-26T13:38:29.722Z,22.02
2023-10-26T13:40:58.951Z,21.97
2023-10-26T13:43:27.919Z,21.99
2023-10-26T13:45:56.920Z,22.12
2023-10-26T13:48:26.304Z,21.91
2023-10-26T13:50:58.100Z,22.01
2023-10-26T13:53:27.312Z,22.13
2023-10-26T13:55:57.889Z,21.84
2023-10-26T13:58:26.997Z,21.89
2023-10-26T14:00:56.057Z,21.82
2023-10-26T14:03:25.141Z,21.89
2023-10-26T14:05:54.786Z,21.81
2023-10-26T14:08:31.464Z,21.65
2023-10-26T14:11:03.804Z,21.58
2023-10-26T14:13:32.780Z,21.53
2023-10-26T14:16:02.184Z,21.64
2023-10-26T14:18:31.348Z,21.35
2023-10-26T14:21:00.606Z,21.72
2023-10-26T14:23:29.910Z,21.95
2023-10-26T14:25:58.819Z,21.76
2023-10-26T14:28:29.263Z,21.68
2023-10-26T14:30:58.648Z,21.94
2023-10-26T14:33:28.030Z,21.97
2023-10-26T14:35:57.081Z,21.85
2023-10-26T14:38:26.134Z,21.68
2023-10-26T14:40:58.612Z,21.69
2023-10-26T14:43:30.190Z,21.45
2023-10-26T14:45:59.416Z,21.51
2023-10-26T14:48:28.344Z,21.52
2023-10-26T14:51:00.976Z,21.47
2023-10-26T14:53:30.433Z,21.40
2023-10-26T14:56:02.833Z,21.17
2023-10-26T14:58:33.741Z,21.18
2023-10-26T15:01:04.281Z,20.91
2023-10-26T15:03:33.442Z,20.75
2023-10-26T15:06:03.024Z,20.82
2023-10-26T15:08:33.000Z,20.79
2023-10-26T15:11:22.631Z,20.70
2023-10-26T15:13:56.096Z,20.87
2023-10-26T15:16:27.672Z,20.75
2023-10-26T15:18:56.777Z,20.63
2023-10-26T15:21:25.821Z,20.61
2023-10-26T15:23:56.535Z,20.31
2023-10-26T15:26:25.701Z,20.34
2023-10-26T15:28:56.479Z,20.39
2023-10-26T15:31:26.476Z,20.31
2023-10-26T15:33:57.369Z,20.18
2023-10-26T15:36:27.896Z,20.30
2023-10-26T15:39:00.227Z,20.07
2023-10-26T15:41:29.303Z,20.29
2023-10-26T15:43:59.986Z,20.46
2023-10-26T15:46:30.060Z,20.40
2023-10-26T15:49:33.961Z,20.04
2023-10-26T15:51:51.086Z,19.84
2023-10-26T15:54:20.172Z,19.74
2023-10-26T15:56:49.593Z,19.61
2023-10-26T15:59:20.103Z,19.48
2023-10-26T16:01:49.242Z,19.38
2023-10-26T16:04:18.350Z,19.38
2023-10-26T16:06:48.192Z,19.16
2023-10-26T16:09:17.242Z,19.40
2023-10-26T16:11:46.412Z,20.00
2023-10-26T16:14:15.779Z,19.64
2023-10-26T16:16:46.558Z,20.02
2023-10-26T16:19:16.100Z,20.25
2023-10-26T16:21:45.585Z,20.31
2023-10-26T16:24:15.144Z,20.27
2023-10-26T16:26:44.342Z,19.93
2023-10-26T16:29:13.703Z,19.44
2023-10-26T16:31:42.953Z,19.21
2023-10-26T16:34:13.729Z,18.88
2023-10-26T16:36:42.828Z,18.89
2023-10-26T16:39:13.343Z,18.62
2023-10-26T16:41:42.389Z,18.48
2023-10-26T16:44:11.579Z,18.45
2023-10-26T16:46:40.726Z,18.79
2023-10-26T16:49:10.074Z,19.15
2023-10-26T16:51:40.775Z,19.43
2023-10-26T16:54:10.168Z,19.23
2023-10-26T16:56:39.256Z,19.22
2023-10-26T16:59:08.325Z,19.31
2023-10-26T17:01:37.382Z,19.34
2023-10-26T17:04:06.668Z,19.05
2023-10-26T17:06:35.874Z,18.52
2023-10-26T17:09:06.991Z,18.22
2023-10-26T17:11:37.552Z,18.09
2023-10-26T17:14:06.892Z,18.06
2023-10-26T17:16:36.198Z,18.17
2023-10-26T17:19:05.649Z,18.01
2023-10-26T17:21:34.567Z,17.92
2023-10-26T17:24:08.043Z,18.08
2023-10-26T17:26:37.129Z,18.20
2023-10-26T17:29:06.566Z,18.28
2023-10-26T17:31:35.582Z,18.56
2023-10-26T17:34:04.866Z,18.41
2023-10-26T17:36:34.136Z,18.05
2023-10-26T17:39:04.327Z,17.75
2023-10-26T17:41:35.222Z,17.34
2023-10-26T17:44:04.736Z,17.39
2023-10-26T17:46:34.193Z,17.40
2023-10-26T17:49:04.059Z,17.14
2023-10-26T17:51:35.113Z,16.84
2023-10-26T17:54:05.485Z,17.00
2023-10-26T17:56:36.621Z,16.79
2023-10-26T17:59:06.109Z,16.83
2023-10-26T18:01:37.753Z,16.59
2023-10-26T18:04:07.529Z,16.65
2023-10-26T18:06:36.976Z,16.54
2023-10-26T18:09:06.504Z,16.53
2023-10-26T18:11:37.235Z,16.38
2023-10-26T18:14:06.667Z,16.49
2023-10-26T18:16:36.022Z,16.46
2023-10-26T18:19:05.089Z,16.53
2023-10-26T18:21:34.440Z,16.44
2023-10-26T18:24:04.642Z,16.26
2023-10-26T18:26:34.162Z,16.12
2023-10-26T18:29:05.308Z,14.96
2023-10-26T18:31:34.844Z,15.42
2023-10-26T18:34:04.538Z,15.55
2023-10-26T18:36:35.710Z,15.86
2023-10-26T18:39:05.026Z,15.77
2023-10-26T18:41:34.344Z,15.81
2023-10-26T18:44:06.772Z,15.91
2023-10-26T18:46:36.252Z,16.10
2023-10-26T18:49:05.590Z,15.78
2023-10-26T18:51:34.970Z,15.90
2023-10-26T18:54:04.781Z,16.04
2023-10-26T18:56:34.073Z,16.29
2023-10-26T18:59:05.707Z,16.44
2023-10-26T19:01:34.920Z,16.40
2023-10-26T19:04:03.945Z,16.56
2023-10-26T19:06:33.386Z,16.57
2023-10-26T19:09:02.813Z,16.47
2023-10-26T19:11:32.089Z,16.20
2023-10-26T19:14:01.203Z,16.34
2023-10-26T19:16:32.266Z,16.06
2023-10-26T19:19:01.601Z,16.35
2023-10-26T19:21:30.887Z,16.42
2023-10-26T19:24:00.161Z,16.05
2023-10-26T19:26:30.043Z,16.14
2023-10-26T19:28:59.147Z,15.35
2023-10-26T19:31:28.930Z,15.60
2023-10-26T19:34:00.039Z,15.58
2023-10-26T19:36:30.951Z,15.43
2023-10-26T19:39:00.161Z,15.43
2023-10-26T19:41:30.400Z,15.40
2023-10-26T19:43:59.704Z,15.37
2023-10-26T19:46:29.211Z,15.44
2023-10-26T19:49:00.071Z,15.64
2023-10-26T19:51:30.063Z,15.60
2023-10-26T19:53:59.135Z,15.69
2023-10-26T19:56:28.945Z,15.15
2023-10-26T19:58:57.874Z,15.22
2023-10-26T20:01:27.421Z,15.14
2023-10-26T20:03:56.555Z,15.28
2023-10-26T20:06:27.399Z,15.27
2023-10-26T20:08:56.728Z,15.21
2023-10-26T20:11:26.005Z,15.04
2023-10-26T20:13:55.510Z,15.21
2023-10-26T20:16:24.810Z,15.17
2023-10-26T20:19:00.884Z,14.99
2023-10-26T20:21:31.717Z,15.12
2023-10-26T20:24:01.022Z,15.15
2023-10-26T20:26:30.240Z,15.12
2023-10-26T20:29:01.035Z,15.11
2023-10-26T20:31:30.913Z,15.06
2023-10-26T20:34:01.564Z,15.19
2023-10-26T20:36:32.370Z,15.28
2023-10-26T20:39:02.409Z,15.38
2023-10-26T20:41:31.590Z,15.29
2023-10-26T20:44:00.758Z,15.65
2023-10-26T20:46:30.493Z,15.67
2023-10-26T20:48:59.615Z,15.40
2023-10-26T20:51:30.511Z,15.53
2023-10-26T20:54:01.608Z,15.39
2023-10-26T20:56:30.544Z,15.06
2023-10-26T21:24:23.197Z,14.00
2023-10-26T21:26:51.980Z,14.18
2023-10-26T21:29:20.777Z,14.10
2023-10-26T21:31:49.595Z,14.12
2023-10-26T21:34:18.521Z,14.25
2023-10-26T21:36:47.311Z,13.98
2023-10-26T21:39:16.232Z,13.95
2023-10-26T21:41:46.561Z,13.63
2023-10-26T21:44:15.424Z,13.58
2023-10-26T21:46:44.313Z,13.75
2023-10-26T21:49:13.186Z,13.85
2023-10-26T21:51:42.418Z,13.95
2023-10-26T21:54:11.378Z,13.74
2023-10-26T21:56:40.149Z,13.88
2023-10-26T21:59:10.821Z,13.76
2023-10-26T22:01:39.852Z,13.88
2023-10-26T22:04:21.483Z,13.86
2023-10-26T22:06:51.146Z,13.87
2023-10-26T22:09:22.161Z,13.74
2023-10-26T22:11:51.207Z,13.85
2023-10-26T22:14:21.442Z,13.86
2023-10-26T22:16:50.397Z,13.85
2023-10-26T22:19:19.343Z,14.01
2023-10-26T22:21:48.179Z,13.83
2023-10-26T22:24:17.021Z,13.78
2023-10-26T22:26:45.786Z,13.77
2023-10-26T22:29:29.357Z,13.95
2023-10-26T22:32:00.780Z,14.19
2023-10-26T22:34:31.318Z,14.10
2023-10-26T22:37:00.549Z,13.83
2023-10-26T22:39:29.521Z,14.13
2023-10-26T22:41:59.162Z,13.93
2023-10-26T22:44:28.037Z,14.04
2023-10-26T22:46:56.896Z,14.10
2023-10-26T22:49:27.293Z,14.30
2023-10-26T22:51:56.654Z,14.34
2023-10-26T22:54:25.583Z,14.23
2023-10-26T22:56:54.436Z,13.82
2023-10-26T22:59:23.490Z,14.24
2023-10-26T23:01:52.713Z,14.29
2023-10-26T23:04:21.640Z,14.27
2023-10-26T23:06:51.860Z,14.21
2023-10-26T23:09:21.348Z,14.11
2023-10-26T23:11:50.111Z,14.30
2023-10-26T23:14:18.921Z,14.32
2023-10-26T23:16:49.496Z,14.32
2023-10-26T23:19:18.628Z,14.05
2023-10-26T23:21:47.686Z,13.76
2023-10-26T23:24:17.884Z,14.02
2023-10-26T23:26:48.780Z,14.29
2023-10-26T23:29:17.649Z,14.42
2023-10-26T23:31:46.538Z,14.40
2023-10-26T23:34:15.430Z,14.48
2023-10-26T23:36:44.328Z,14.49
2023-10-26T23:39:13.170Z,14.55
2023-10-26T23:41:43.399Z,14.65
2023-10-26T23:44:12.259Z,14.66
2023-10-26T23:46:41.115Z,14.77
2023-10-26T23:49:09.928Z,14.76
2023-10-26T23:51:38.785Z,14.69
2023-10-26T23:54:08.052Z,14.74
2023-10-26T23:56:36.864Z,14.69
2023-10-26T23:59:07.157Z,14.49
